createdAt,value
2023-05-11T00:00:21.819Z,0.5
2023-05-11T00:01:31.535Z,0.7
2023-05-11T00:02:41.311Z,1
2023-05-11T00:03:50.954Z,0.6
2023-05-11T00:05:00.644Z,0.5
2023-05-11T00:06:10.384Z,0.4
2023-05-11T00:07:20.065Z,0.4
2023-05-11T00:08:29.731Z,0.3
2023-05-11T00:09:38.503Z,0.4
2023-05-11T00:10:48.206Z,0.6
2023-05-11T00:11:57.871Z,0.9
2023-05-11T00:13:07.622Z,0.7
2023-05-11T00:14:17.305Z,1
2023-05-11T00:15:27.058Z,0.8
2023-05-11T00:16:36.769Z,0.9
2023-05-11T00:17:46.533Z,1.1
2023-05-11T00:18:56.237Z,0.9
2023-05-11T00:20:05.875Z,0.9
2023-05-11T00:21:15.578Z,1.2
2023-05-11T00:22:25.262Z,1
2023-05-11T00:23:35.003Z,0.8
2023-05-11T00:24:44.728Z,1
2023-05-11T00:25:54.425Z,1.2
2023-05-11T00:27:03.105Z,0.8
2023-05-11T00:28:11.833Z,1.1
2023-05-11T00:29:21.541Z,1.2
2023-05-11T00:30:31.256Z,1.1
2023-05-11T00:31:40.965Z,0.9
2023-05-11T00:32:50.727Z,0.9
2023-05-11T00:34:00.420Z,0.6
2023-05-11T00:35:10.121Z,1
2023-05-11T00:36:19.827Z,1.1
2023-05-11T00:37:29.550Z,1
2023-05-11T00:38:39.273Z,0.8
2023-05-11T00:39:48.978Z,1.1
2023-05-11T00:40:58.667Z,0.3
2023-05-11T00:42:08.432Z,0.4
2023-05-11T00:43:18.246Z,0.4
2023-05-11T00:44:27.929Z,0.3
2023-05-11T00:45:37.673Z,0.5
2023-05-11T00:46:46.437Z,0.7
2023-05-11T00:47:56.172Z,0.6
2023-05-11T00:49:05.844Z,0.4
2023-05-11T00:50:15.701Z,0.3
2023-05-11T00:51:24.224Z,1.1
2023-05-11T00:52:32.983Z,0.4
2023-05-11T00:53:42.700Z,0.9
2023-05-11T00:54:52.408Z,0.5
2023-05-11T00:56:02.163Z,0.3
2023-05-11T00:57:11.886Z,0.3
2023-05-11T00:58:21.629Z,0.3
2023-05-11T00:59:31.314Z,0.4
2023-05-11T01:00:41.183Z,0.3
2023-05-11T01:01:50.819Z,0.3
2023-05-11T01:03:00.523Z,0.2
2023-05-11T01:04:10.193Z,0.3
2023-05-11T01:05:19.989Z,0.3
2023-05-11T01:06:29.686Z,0.7
2023-05-11T01:07:39.352Z,0.7
2023-05-11T01:08:49.178Z,1
2023-05-11T01:09:58.903Z,0.9
2023-05-11T01:11:08.666Z,1.3
2023-05-11T01:12:18.334Z,1.3
2023-05-11T01:13:27.071Z,0.3
2023-05-11T01:14:36.748Z,0.4
2023-05-11T01:15:44.500Z,0.3
2023-05-11T01:16:53.241Z,0.3
2023-05-11T01:18:02.946Z,0.3
2023-05-11T01:19:11.709Z,0.4
2023-05-11T01:20:21.346Z,0.3
2023-05-11T01:21:31.032Z,0.3
2023-05-11T01:22:39.767Z,0.3
2023-05-11T01:23:49.440Z,0.2
2023-05-11T01:24:58.142Z,0.3
2023-05-11T01:26:07.875Z,0.3
2023-05-11T01:27:17.567Z,0.3
2023-05-11T01:28:27.280Z,0.3
2023-05-11T01:29:37.035Z,0.3
2023-05-11T01:30:46.722Z,0.3
2023-05-11T01:31:56.474Z,0.2
2023-05-11T01:33:06.077Z,0.2
2023-05-11T01:34:15.784Z,0.3
2023-05-11T01:35:25.464Z,0.3
2023-05-11T01:36:35.180Z,0.2
2023-05-11T01:37:43.887Z,0.3
2023-05-11T01:38:53.638Z,0.3
2023-05-11T01:40:02.356Z,0.3
2023-05-11T01:41:11.055Z,0.2
2023-05-11T01:42:20.765Z,0.2
2023-05-11T01:43:30.480Z,0.5
2023-05-11T01:44:39.180Z,0.4
2023-05-11T01:45:51.213Z,0.2
2023-05-11T01:46:58.587Z,0.5
2023-05-11T01:48:07.395Z,0.4
2023-05-11T01:49:17.033Z,0.4
2023-05-11T01:50:26.788Z,0.3
2023-05-11T01:51:36.428Z,0.5
2023-05-11T01:52:45.176Z,0.2
2023-05-11T01:53:54.852Z,0.4
2023-05-11T01:55:04.524Z,0.3
2023-05-11T01:56:14.221Z,0.3
2023-05-11T01:57:23.971Z,0.2
2023-05-11T01:58:33.694Z,0.3
2023-05-11T01:59:42.411Z,0.3
2023-05-11T02:00:52.171Z,0.4
2023-05-11T02:02:01.940Z,0.4
2023-05-11T02:03:11.840Z,0.7
2023-05-11T02:04:21.348Z,0.7
2023-05-11T02:05:30.175Z,0.2
2023-05-11T02:06:39.801Z,0.2
2023-05-11T02:07:49.535Z,0.4
2023-05-11T02:08:57.201Z,0.6
2023-05-11T02:10:06.912Z,0.3
2023-05-11T02:11:16.645Z,0.3
2023-05-11T02:12:25.389Z,0.3
2023-05-11T02:13:35.074Z,0.2
2023-05-11T02:14:44.795Z,0.2
2023-05-11T02:15:54.648Z,0.5
2023-05-11T02:17:03.291Z,0.5
2023-05-11T02:18:12.985Z,0.3
2023-05-11T02:19:22.674Z,0.5
2023-05-11T02:20:32.422Z,0.3
2023-05-11T02:21:42.144Z,0.5
2023-05-11T02:22:51.839Z,0.5
2023-05-11T02:24:00.534Z,0.4
2023-05-11T02:25:10.232Z,0.5
2023-05-11T02:26:20.003Z,0.4
2023-05-11T02:27:29.698Z,0.3
2023-05-11T02:28:39.389Z,0.2
2023-05-11T02:29:49.120Z,0.3
2023-05-11T02:30:58.939Z,0.2
2023-05-11T02:32:08.586Z,0.3
2023-05-11T02:33:18.275Z,0.3
2023-05-11T02:34:27.993Z,0.6
2023-05-11T02:35:37.756Z,0.4
2023-05-11T02:36:47.475Z,0.4
2023-05-11T02:37:57.203Z,0.5
2023-05-11T02:39:04.921Z,0.5
2023-05-11T02:40:14.672Z,0.5
2023-05-11T02:41:24.399Z,0.4
2023-05-11T02:42:34.106Z,0.4
2023-05-11T02:43:43.809Z,0.6
2023-05-11T02:44:53.530Z,0.4
2023-05-11T02:46:03.264Z,0.3
2023-05-11T02:47:12.931Z,0.3
2023-05-11T02:48:22.663Z,0.4
2023-05-11T02:49:32.390Z,0.3
2023-05-11T02:50:42.100Z,0.4
2023-05-11T02:51:51.788Z,0.3
2023-05-11T02:53:01.483Z,0.4
2023-05-11T02:54:11.197Z,0.5
2023-05-11T02:55:18.865Z,0.4
2023-05-11T02:56:28.559Z,0.3
2023-05-11T02:57:38.292Z,0.4
2023-05-11T02:58:48.044Z,0.5
2023-05-11T02:59:57.737Z,0.4
2023-05-11T03:01:07.546Z,0.4
2023-05-11T03:02:17.273Z,0.4
2023-05-11T03:03:27.016Z,0.5
2023-05-11T03:04:36.573Z,0.3
2023-05-11T03:05:46.268Z,0.3
2023-05-11T03:06:56.120Z,0.3
2023-05-11T03:08:05.936Z,0.4
2023-05-11T03:09:15.641Z,0.3
2023-05-11T03:10:25.327Z,0.4
2023-05-11T03:11:35.059Z,0.4
2023-05-11T03:12:44.786Z,0.3
2023-05-11T03:13:54.531Z,0.3
2023-05-11T03:15:04.227Z,0.4
2023-05-11T03:16:14.066Z,0.3
2023-05-11T03:17:23.817Z,0.3
2023-05-11T03:18:33.524Z,0.2
2023-05-11T03:19:41.210Z,0.3
2023-05-11T03:20:50.920Z,0.3
2023-05-11T03:22:00.639Z,0.3
2023-05-11T03:23:09.384Z,0.3
2023-05-11T03:24:19.107Z,0.4
2023-05-11T03:25:28.844Z,0.3
2023-05-11T03:26:38.590Z,0.3
2023-05-11T03:27:48.273Z,0.3
2023-05-11T03:28:56.975Z,0.3
2023-05-11T03:30:06.693Z,0.4
2023-05-11T03:31:16.461Z,0.3
2023-05-11T03:32:25.310Z,0.4
2023-05-11T03:33:34.826Z,0.5
2023-05-11T03:34:44.561Z,0.5
2023-05-11T03:35:53.283Z,0.5
2023-05-11T03:37:02.984Z,0.7
2023-05-11T03:38:12.686Z,0.6
2023-05-11T03:39:22.408Z,0.5
2023-05-11T03:40:32.154Z,0.7
2023-05-11T03:41:41.855Z,0.7
2023-05-11T03:42:51.567Z,0.5
2023-05-11T03:44:00.323Z,0.7
2023-05-11T03:45:10.036Z,0.5
2023-05-11T03:46:19.736Z,0.5
2023-05-11T03:47:29.469Z,0.5
2023-05-11T03:48:39.160Z,0.6
2023-05-11T03:49:48.898Z,0.5
2023-05-11T03:50:57.602Z,0.4
2023-05-11T03:52:07.335Z,0.6
2023-05-11T03:53:17.036Z,0.6
2023-05-11T03:54:26.779Z,0.5
2023-05-11T03:55:35.489Z,0.7
2023-05-11T03:56:44.198Z,0.5
2023-05-11T03:57:54.922Z,0.6
2023-05-11T03:59:04.638Z,0.6
2023-05-11T04:00:13.352Z,0.7
2023-05-11T04:01:23.321Z,0.6
2023-05-11T04:02:33.162Z,0.4
2023-05-11T04:03:42.904Z,0.3
2023-05-11T04:04:52.613Z,0.6
2023-05-11T04:06:02.254Z,0.4
2023-05-11T04:07:11.958Z,0.5
2023-05-11T04:08:21.673Z,0.6
2023-05-11T04:09:30.377Z,0.4
2023-05-11T04:10:40.045Z,0.4
2023-05-11T04:11:48.751Z,0.5
2023-05-11T04:12:58.444Z,0.4
2023-05-11T04:14:08.146Z,0.4
2023-05-11T04:15:17.862Z,0.5
2023-05-11T04:16:27.641Z,0.4
2023-05-11T04:17:37.404Z,0.3
2023-05-11T04:18:47.121Z,0.4
2023-05-11T04:19:56.769Z,0.3
2023-05-11T04:21:04.453Z,0.4
2023-05-11T04:22:14.167Z,0.4
2023-05-11T04:23:22.871Z,0.5
2023-05-11T04:24:31.580Z,0.4
2023-05-11T04:25:41.264Z,0.4
2023-05-11T04:26:49.974Z,0.6
2023-05-11T04:27:59.714Z,0.6
2023-05-11T04:29:09.471Z,0.3
2023-05-11T04:30:18.403Z,0.4
2023-05-11T04:31:27.899Z,0.4
2023-05-11T04:32:37.584Z,0.6
2023-05-11T04:33:47.272Z,0.4
2023-05-11T04:34:57.010Z,0.5
2023-05-11T04:36:05.765Z,0.4
2023-05-11T04:37:14.455Z,0.4
2023-05-11T04:38:24.121Z,0.5
2023-05-11T04:39:32.815Z,0.4
2023-05-11T04:40:42.531Z,0.3
2023-05-11T04:41:52.259Z,0.5
2023-05-11T04:43:01.083Z,0.5
2023-05-11T04:44:10.751Z,0.4
2023-05-11T04:45:19.456Z,0.4
2023-05-11T04:46:28.217Z,0.4
2023-05-11T04:47:36.947Z,0.5
2023-05-11T04:48:46.559Z,0.4
2023-05-11T04:49:56.284Z,0.3
2023-05-11T04:51:05.993Z,0.5
2023-05-11T04:52:14.668Z,0.4
2023-05-11T04:53:24.358Z,0.4
2023-05-11T04:54:34.065Z,0.4
2023-05-11T04:55:43.820Z,0.4
2023-05-11T04:56:53.511Z,0.3
2023-05-11T04:58:03.281Z,0.3
2023-05-11T04:59:13.039Z,0.3
2023-05-11T05:00:22.925Z,0.4
2023-05-11T05:01:32.541Z,0.4
2023-05-11T05:02:42.260Z,0.5
2023-05-11T05:03:52.022Z,0.4
2023-05-11T05:05:01.678Z,0.3
2023-05-11T05:06:11.318Z,0.4
2023-05-11T05:07:21.011Z,0.4
2023-05-11T05:08:30.715Z,0.3
2023-05-11T05:09:40.871Z,0.4
2023-05-11T05:10:51.125Z,0.4
2023-05-11T05:12:00.817Z,0.4
2023-05-11T05:13:10.551Z,0.4
2023-05-11T05:14:20.285Z,0.5
2023-05-11T05:15:29.958Z,0.5
2023-05-11T05:16:38.650Z,0.5
2023-05-11T05:17:48.360Z,0.5
2023-05-11T05:18:58.056Z,0.6
2023-05-11T05:20:06.729Z,0.6
2023-05-11T05:21:16.383Z,0.5
2023-05-11T05:22:26.100Z,0.4
2023-05-11T05:23:35.829Z,0.5
2023-05-11T05:24:45.531Z,0.5
2023-05-11T05:25:55.227Z,0.5
2023-05-11T05:27:04.929Z,0.5
2023-05-11T05:28:14.642Z,0.6
2023-05-11T05:29:24.333Z,0.6
2023-05-11T05:30:34.076Z,0.6
2023-05-11T05:31:43.766Z,0.6
2023-05-11T05:32:53.552Z,0.6
2023-05-11T05:34:03.186Z,0.6
2023-05-11T05:35:11.888Z,0.5
2023-05-11T05:36:21.553Z,0.4
2023-05-11T05:37:31.285Z,0.5
2023-05-11T05:38:39.982Z,0.4
2023-05-11T05:39:49.645Z,0.4
2023-05-11T05:40:59.361Z,0.5
2023-05-11T05:42:09.051Z,0.5
2023-05-11T05:43:18.752Z,0.5
2023-05-11T05:44:28.442Z,0.7
2023-05-11T05:45:38.121Z,0.5
2023-05-11T05:46:47.878Z,0.6
2023-05-11T05:47:57.578Z,0.6
2023-05-11T05:49:07.266Z,0.6
2023-05-11T05:50:17.130Z,0.6
2023-05-11T05:51:26.746Z,0.4
2023-05-11T05:52:36.457Z,0.5
2023-05-11T05:53:46.203Z,0.6
2023-05-11T05:54:55.898Z,0.7
2023-05-11T05:56:04.644Z,0.5
2023-05-11T05:57:15.750Z,0.7
2023-05-11T05:58:25.017Z,0.6
2023-05-11T05:59:34.716Z,0.6
2023-05-11T06:00:44.470Z,0.5
2023-05-11T06:01:54.223Z,0.5
2023-05-11T06:03:04.032Z,0.5
2023-05-11T06:04:13.623Z,0.6
2023-05-11T06:05:22.313Z,0.6
2023-05-11T06:06:31.983Z,0.5
2023-05-11T06:07:41.669Z,0.6
2023-05-11T06:08:51.373Z,0.7
2023-05-11T06:10:01.101Z,0.5
2023-05-11T06:11:10.786Z,0.6
2023-05-11T06:12:20.615Z,0.6
2023-05-11T06:13:30.294Z,0.5
2023-05-11T06:14:38.998Z,0.5
2023-05-11T06:15:48.782Z,0.6
2023-05-11T06:16:58.433Z,0.4
2023-05-11T06:18:08.149Z,0.5
2023-05-11T06:19:17.841Z,0.6
2023-05-11T06:20:26.626Z,0.5
2023-05-11T06:21:35.269Z,0.5
2023-05-11T06:22:44.952Z,0.5
2023-05-11T06:23:53.684Z,0.5
2023-05-11T06:25:03.415Z,0.5
2023-05-11T06:26:12.084Z,0.4
2023-05-11T06:27:20.747Z,0.5
2023-05-11T06:28:30.447Z,0.5
2023-05-11T06:29:40.201Z,0.4
2023-05-11T06:30:49.902Z,0.5
2023-05-11T06:31:59.725Z,0.7
2023-05-11T06:33:07.429Z,0.4
2023-05-11T06:34:17.138Z,0.5
2023-05-11T06:35:26.825Z,0.5
2023-05-11T06:36:36.565Z,0.5
2023-05-11T06:37:46.271Z,0.5
2023-05-11T06:38:56.004Z,0.4
2023-05-11T06:40:05.679Z,0.5
2023-05-11T06:41:15.362Z,0.6
2023-05-11T06:42:25.152Z,0.5
2023-05-11T06:43:34.906Z,0.6
2023-05-11T06:44:44.618Z,0.7
2023-05-11T06:45:54.324Z,0.6
2023-05-11T06:47:04.027Z,0.5
2023-05-11T06:48:13.775Z,0.7
2023-05-11T06:49:23.458Z,0.6
2023-05-11T06:50:33.162Z,0.6
2023-05-11T06:51:42.888Z,0.6
2023-05-11T06:52:53.557Z,0.6
2023-05-11T06:54:03.289Z,0.6
2023-05-11T06:55:12.978Z,0.5
2023-05-11T06:56:22.716Z,0.5
2023-05-11T06:57:31.468Z,0.5
2023-05-11T06:58:41.160Z,0.7
2023-05-11T06:59:50.835Z,0.7
2023-05-11T07:00:59.570Z,0.4
2023-05-11T07:02:10.274Z,0.4
2023-05-11T07:03:20.002Z,0.4
2023-05-11T07:04:28.726Z,0.4
2023-05-11T07:05:38.447Z,0.4
2023-05-11T07:06:47.205Z,0.3
2023-05-11T07:07:56.859Z,0.3
2023-05-11T07:09:06.568Z,0.5
2023-05-11T07:10:15.273Z,0.4
2023-05-11T07:11:25.009Z,0.3
2023-05-11T07:12:33.713Z,0.4
2023-05-11T07:13:43.405Z,0.5
2023-05-11T07:14:53.104Z,0.5
2023-05-11T07:16:02.840Z,0.6
2023-05-11T07:17:12.601Z,0.7
2023-05-11T07:18:22.267Z,0.6
2023-05-11T07:19:30.953Z,0.7
2023-05-11T07:20:40.706Z,0.7
2023-05-11T07:21:49.436Z,0.5
2023-05-11T07:22:59.104Z,0.6
2023-05-11T07:24:08.778Z,0.8
2023-05-11T07:25:17.452Z,0.8
2023-05-11T07:26:27.166Z,0.7
2023-05-11T07:27:36.834Z,0.6
2023-05-11T07:28:46.536Z,0.6
2023-05-11T07:29:56.259Z,0.5
2023-05-11T07:31:06.009Z,0.7
2023-05-11T07:32:15.680Z,0.6
2023-05-11T07:33:25.388Z,0.5
2023-05-11T07:34:34.142Z,0.8
2023-05-11T07:35:43.850Z,0.6
2023-05-11T07:36:53.559Z,0.2
2023-05-11T07:38:02.246Z,0.3
2023-05-11T07:39:11.964Z,0.3
2023-05-11T07:40:21.833Z,0.2
2023-05-11T07:41:31.365Z,0.2
2023-05-11T07:42:41.048Z,0.3
2023-05-11T07:43:50.794Z,0.2
2023-05-11T07:45:00.488Z,0.3
2023-05-11T07:46:09.206Z,0.4
2023-05-11T07:47:18.913Z,0.3
2023-05-11T07:48:28.627Z,0.3
2023-05-11T07:49:43.309Z,0.3
2023-05-11T07:50:49.003Z,0.3
2023-05-11T07:51:58.704Z,0.2
2023-05-11T07:53:08.413Z,0.2
2023-05-11T07:54:19.538Z,0.3
2023-05-11T07:55:28.831Z,0.2
2023-05-11T07:56:38.551Z,0.3
2023-05-11T07:57:48.287Z,0.2
2023-05-11T07:58:57.003Z,0.3
2023-05-11T08:00:06.715Z,0.3
2023-05-11T08:01:16.406Z,0.3
2023-05-11T08:02:26.228Z,0.4
2023-05-11T08:03:35.928Z,0.4
2023-05-11T08:04:45.609Z,0.4
2023-05-11T08:05:55.323Z,0.4
2023-05-11T08:07:05.058Z,0.4
2023-05-11T08:08:14.725Z,0.4
2023-05-11T08:09:24.413Z,0.4
2023-05-11T08:10:33.103Z,0.4
2023-05-11T08:11:42.821Z,0.4
2023-05-11T08:12:52.592Z,0.4
2023-05-11T08:14:02.258Z,0.4
2023-05-11T08:15:10.959Z,0.5
2023-05-11T08:16:20.683Z,0.5
2023-05-11T08:17:29.347Z,0.5
2023-05-11T08:18:39.043Z,0.5
2023-05-11T08:19:49.707Z,0.4
2023-05-11T08:20:59.413Z,0.6
2023-05-11T08:22:09.155Z,0.4
2023-05-11T08:23:18.836Z,0.3
2023-05-11T08:24:28.511Z,0.3
2023-05-11T08:25:38.232Z,0.3
2023-05-11T08:26:47.987Z,0.3
2023-05-11T08:27:57.700Z,0.4
2023-05-11T08:29:07.384Z,0.4
2023-05-11T08:30:17.081Z,0.4
2023-05-11T08:31:26.853Z,0.4
2023-05-11T08:32:46.528Z,0.6
2023-05-11T08:33:47.714Z,0.5
2023-05-11T08:34:57.619Z,0.5
2023-05-11T08:36:07.201Z,0.4
2023-05-11T08:37:16.881Z,0.7
2023-05-11T08:38:26.556Z,0.6
2023-05-11T08:39:46.442Z,0.5
2023-05-11T08:40:46.946Z,0.4
2023-05-11T08:41:55.622Z,0.6
2023-05-11T08:43:05.286Z,0.4
2023-05-11T08:44:15.009Z,0.7
2023-05-11T08:45:24.745Z,0.9
2023-05-11T08:46:34.431Z,0.7
2023-05-11T08:47:43.118Z,0.7
2023-05-11T08:48:52.810Z,0.8
2023-05-11T08:50:02.548Z,0.8
2023-05-11T08:51:12.225Z,1
2023-05-11T08:52:21.953Z,0.9
2023-05-11T08:53:31.718Z,1
2023-05-11T08:54:41.426Z,0.5
2023-05-11T08:55:51.170Z,0.4
2023-05-11T08:57:00.867Z,0.7
2023-05-11T08:58:10.564Z,0.8
2023-05-11T08:59:21.317Z,0.3
2023-05-11T09:00:31.002Z,0.4
2023-05-11T09:01:40.768Z,0.3
2023-05-11T09:02:50.502Z,0.2
2023-05-11T09:04:00.204Z,0.1
2023-05-11T09:05:09.897Z,1.1
2023-05-11T09:06:19.580Z,0.5
2023-05-11T09:07:29.274Z,0.4
2023-05-11T09:08:38.921Z,0.5
2023-05-11T09:09:48.617Z,0.5
2023-05-11T09:10:58.296Z,0.5
2023-05-11T09:12:08.035Z,0.5
2023-05-11T09:13:17.727Z,0.5
2023-05-11T09:14:27.797Z,0.5
2023-05-11T09:15:38.014Z,0.4
2023-05-11T09:16:46.804Z,0.5
2023-05-11T09:17:56.604Z,0.4
2023-05-11T09:19:05.247Z,0.4
2023-05-11T09:20:14.908Z,0.4
2023-05-11T09:21:23.599Z,0.3
2023-05-11T09:22:35.528Z,0.4
2023-05-11T09:23:44.094Z,0.4
2023-05-11T09:24:53.783Z,0.3
2023-05-11T09:26:03.506Z,0.3
2023-05-11T09:27:13.250Z,0.3
2023-05-11T09:28:25.336Z,0.2
2023-05-11T09:29:32.580Z,0.3
2023-05-11T09:30:42.273Z,0.3
2023-05-11T09:31:51.986Z,0.3
2023-05-11T09:33:01.662Z,0.2
2023-05-11T09:34:11.335Z,0.3
2023-05-11T09:35:21.187Z,0.3
2023-05-11T09:36:30.761Z,0.3
2023-05-11T09:37:40.472Z,0.4
2023-05-11T09:38:50.153Z,0.3
2023-05-11T09:40:25.449Z,0.5
2023-05-11T09:41:10.544Z,0.4
2023-05-11T09:42:20.249Z,0.5
2023-05-11T09:43:29.953Z,0.4
2023-05-11T09:44:39.668Z,0.4
2023-05-11T09:45:49.411Z,0.3
2023-05-11T09:46:59.108Z,0.4
2023-05-11T09:48:08.844Z,0.6
2023-05-11T09:49:18.528Z,0.4
2023-05-11T09:50:28.260Z,0.3
2023-05-11T09:51:37.976Z,0.3
2023-05-11T09:52:47.674Z,0.4
2023-05-11T09:53:56.378Z,0.4
2023-05-11T09:55:05.091Z,0.4
2023-05-11T09:56:14.758Z,0.3
2023-05-11T09:57:24.504Z,0.4
2023-05-11T09:58:33.224Z,0.3
2023-05-11T09:59:42.941Z,0.3
2023-05-11T10:00:52.634Z,0.4
2023-05-11T10:02:02.323Z,0.3
2023-05-11T10:03:12.133Z,0.3
2023-05-11T10:04:23.316Z,0.3
2023-05-11T10:05:32.497Z,0.5
2023-05-11T10:06:42.172Z,0.4
2023-05-11T10:07:51.898Z,0.4
2023-05-11T10:09:01.601Z,0.4
2023-05-11T10:10:11.293Z,0.3
2023-05-11T10:11:20.984Z,0.4
2023-05-11T10:12:30.697Z,0.2
2023-05-11T10:13:40.415Z,0.2
2023-05-11T10:14:50.110Z,0.1
2023-05-11T10:15:59.836Z,0.3
2023-05-11T10:17:09.548Z,0.3
2023-05-11T10:18:20.313Z,0.2
2023-05-11T10:19:29.937Z,0.2
2023-05-11T10:20:39.605Z,0.2
2023-05-11T10:21:49.330Z,0.2
2023-05-11T10:22:58.040Z,0.3
2023-05-11T10:24:07.720Z,0.5
2023-05-11T10:25:17.394Z,0.4
2023-05-11T10:26:26.111Z,0.4
2023-05-11T10:27:35.834Z,0.3
2023-05-11T10:28:45.512Z,0.2
2023-05-11T10:29:54.223Z,0.2
2023-05-11T10:31:03.925Z,0.2
2023-05-11T10:32:13.785Z,0.3
2023-05-11T10:33:22.370Z,0.3
2023-05-11T10:34:32.074Z,0.2
2023-05-11T10:35:41.778Z,0.2
2023-05-11T10:36:51.519Z,0.3
2023-05-11T10:38:01.233Z,0.3
2023-05-11T10:39:09.905Z,0.3
2023-05-11T10:40:19.753Z,0.3
2023-05-11T10:41:29.319Z,0.2
2023-05-11T10:42:39.022Z,0.3
2023-05-11T10:43:48.719Z,0.3
2023-05-11T10:44:58.432Z,0.3
2023-05-11T10:46:08.190Z,0.2
2023-05-11T10:47:17.868Z,0.3
2023-05-11T10:48:26.562Z,0.3
2023-05-11T10:49:36.264Z,0.1
2023-05-11T10:50:45.967Z,0.2
2023-05-11T10:51:55.633Z,0.2
2023-05-11T10:53:05.359Z,0.3
2023-05-11T10:54:15.027Z,0.2
2023-05-11T10:55:24.749Z,0.2
2023-05-11T10:56:34.486Z,0.2
2023-05-11T10:57:44.203Z,0.2
2023-05-11T10:58:53.925Z,0.3
2023-05-11T11:00:03.657Z,0.3
2023-05-11T11:01:13.396Z,0.2
2023-05-11T11:02:23.047Z,0.2
2023-05-11T11:03:32.765Z,0.3
2023-05-11T11:04:41.472Z,0.2
2023-05-11T11:05:51.181Z,0.2
2023-05-11T11:07:00.858Z,0.2
2023-05-11T11:08:10.581Z,0.3
2023-05-11T11:09:20.333Z,0.2
2023-05-11T11:10:29.019Z,0.2
2023-05-11T11:11:38.708Z,0.4
2023-05-11T11:12:48.473Z,0.9
2023-05-11T11:13:58.205Z,1
2023-05-11T11:15:07.886Z,0.7
2023-05-11T11:16:17.540Z,1.2
2023-05-11T11:17:27.423Z,0.6
2023-05-11T11:18:37.177Z,0.5
2023-05-11T11:19:45.854Z,0.3
2023-05-11T11:20:55.577Z,0.3
2023-05-11T11:22:05.281Z,0.2
2023-05-11T11:23:15.019Z,0.4
2023-05-11T11:24:24.679Z,0.1
2023-05-11T11:25:34.390Z,0.1
2023-05-11T11:26:44.103Z,0.3
2023-05-11T11:27:52.819Z,0.3
2023-05-11T11:29:02.592Z,0.4
2023-05-11T11:30:12.254Z,0.4
2023-05-11T11:31:20.908Z,0.4
2023-05-11T11:32:30.756Z,0.4
2023-05-11T11:33:40.325Z,0.4
2023-05-11T11:34:50.031Z,0.4
2023-05-11T11:35:59.721Z,0.5
2023-05-11T11:37:08.423Z,0.3
2023-05-11T11:38:18.116Z,0.5
2023-05-11T11:39:26.773Z,0.2
2023-05-11T11:40:43.113Z,0.3
2023-05-11T11:41:47.113Z,0.5
2023-05-11T11:42:56.822Z,0.5
2023-05-11T11:44:06.537Z,0.6
2023-05-11T11:45:16.338Z,0.8
2023-05-11T11:46:24.967Z,0.9
2023-05-11T11:47:34.698Z,1.2
2023-05-11T11:48:43.345Z,1.5
2023-05-11T11:49:53.051Z,1.2
2023-05-11T11:51:02.754Z,1.2
2023-05-11T11:52:12.431Z,1
2023-05-11T11:53:22.160Z,1.1
2023-05-11T11:54:31.834Z,1.3
2023-05-11T11:55:40.595Z,1.6
2023-05-11T11:56:50.288Z,1
2023-05-11T11:57:59.977Z,0.8
2023-05-11T11:59:09.649Z,1.1
2023-05-11T12:00:19.373Z,1
2023-05-11T12:01:29.065Z,0.7
2023-05-11T12:02:38.798Z,0.8
2023-05-11T12:03:48.529Z,1.1
2023-05-11T12:04:57.200Z,0.9
2023-05-11T12:06:06.837Z,0.9
2023-05-11T12:07:16.508Z,0.8
2023-05-11T12:08:26.225Z,0.8
2023-05-11T12:09:35.967Z,1.3
2023-05-11T12:10:45.655Z,2.1
2023-05-11T12:11:54.340Z,2
2023-05-11T12:13:04.020Z,1.8
2023-05-11T12:14:13.748Z,1.8
2023-05-11T12:15:23.439Z,1.9
2023-05-11T12:16:32.268Z,1.6
2023-05-11T12:17:41.835Z,1.2
2023-05-11T12:18:51.593Z,1
2023-05-11T12:20:01.681Z,1
2023-05-11T12:21:11.383Z,0.9
2023-05-11T12:22:21.083Z,0.9
2023-05-11T12:23:30.861Z,0.9
2023-05-11T12:24:40.531Z,0.8
2023-05-11T12:25:49.219Z,0.7
2023-05-11T12:26:58.911Z,1.1
2023-05-11T12:28:08.689Z,0.9
2023-05-11T12:29:19.403Z,0.9
2023-05-11T12:30:29.079Z,0.6
2023-05-11T12:31:38.917Z,0.5
2023-05-11T12:32:48.565Z,0.3
2023-05-11T12:33:58.215Z,0.3
2023-05-11T12:35:07.944Z,0.2
2023-05-11T12:36:17.638Z,0.2
2023-05-11T12:37:27.430Z,0.2
2023-05-11T12:38:37.170Z,0.2
2023-05-11T12:39:46.840Z,0.3
2023-05-11T12:40:56.547Z,0.6
2023-05-11T12:42:05.239Z,0.7
2023-05-11T12:43:14.958Z,1
2023-05-11T12:44:24.651Z,0.8
2023-05-11T12:45:34.355Z,0.8
2023-05-11T12:46:44.167Z,0.8
2023-05-11T12:47:52.846Z,0.5
2023-05-11T12:49:02.498Z,0.5
2023-05-11T12:50:12.191Z,0.5
2023-05-11T12:51:21.923Z,1
2023-05-11T12:52:31.716Z,0.7
2023-05-11T12:53:41.425Z,0.8
2023-05-11T12:54:51.083Z,0.7
2023-05-11T12:56:00.825Z,0.8
2023-05-11T12:57:09.505Z,0.8
2023-05-11T12:58:19.177Z,0.9
2023-05-11T12:59:29.867Z,0.9
2023-05-11T13:00:39.606Z,1.3
2023-05-11T13:01:49.383Z,1
2023-05-11T13:02:59.128Z,1
2023-05-11T13:04:08.798Z,1.2
2023-05-11T13:05:18.596Z,1
2023-05-11T13:06:27.170Z,0.9
2023-05-11T13:07:36.859Z,0.5
2023-05-11T13:08:46.621Z,0.3
2023-05-11T13:09:56.332Z,0.3
2023-05-11T13:11:06.050Z,0.4
2023-05-11T13:12:15.748Z,0.2
2023-05-11T13:13:25.473Z,0.4
2023-05-11T13:14:35.148Z,0.2
2023-05-11T13:15:44.890Z,0.3
2023-05-11T13:16:54.565Z,0.3
2023-05-11T13:18:04.289Z,0.3
2023-05-11T13:19:14.007Z,0.4
2023-05-11T13:20:23.757Z,0.3
2023-05-11T13:21:33.616Z,0.3
2023-05-11T13:22:41.107Z,0.4
2023-05-11T13:23:50.819Z,0.9
2023-05-11T13:24:58.515Z,0.4
2023-05-11T13:26:07.198Z,0.3
2023-05-11T13:27:16.886Z,0.3
2023-05-11T13:28:27.579Z,0.3
2023-05-11T13:29:37.301Z,0.3
2023-05-11T13:30:47.136Z,0.4
2023-05-11T13:31:56.737Z,0.3
2023-05-11T13:33:06.439Z,0.3
2023-05-11T13:34:14.127Z,0.2
2023-05-11T13:35:23.862Z,0.3
2023-05-11T13:36:33.884Z,0.3
2023-05-11T13:37:43.277Z,0.3
2023-05-11T13:38:53.022Z,0.2
2023-05-11T13:40:01.725Z,0.2
2023-05-11T13:41:11.410Z,0.3
2023-05-11T13:42:20.098Z,0.3
2023-05-11T13:43:27.831Z,0.2
2023-05-11T13:44:38.545Z,0.4
2023-05-11T13:45:48.248Z,0.3
2023-05-11T13:46:57.974Z,0.3
2023-05-11T13:48:07.645Z,0.2
2023-05-11T13:49:16.312Z,0.2
2023-05-11T13:50:25.988Z,0.2
2023-05-11T13:51:34.657Z,0.3
2023-05-11T13:52:43.390Z,0.3
2023-05-11T13:53:53.071Z,1.5
2023-05-11T13:55:02.765Z,2.1
2023-05-11T13:56:12.486Z,0.4
2023-05-11T13:57:22.212Z,0.2
2023-05-11T13:58:31.894Z,0.2
2023-05-11T13:59:41.581Z,0.2
2023-05-11T14:01:04.153Z,0.3
2023-05-11T14:02:02.066Z,0.2
2023-05-11T14:03:11.724Z,0.2
2023-05-11T14:04:21.373Z,0.4
2023-05-11T14:05:30.058Z,1.3
2023-05-11T14:06:38.805Z,1.4
2023-05-11T14:07:49.108Z,1.3
2023-05-11T14:08:58.154Z,2.3
2023-05-11T14:10:06.841Z,2.6
2023-05-11T14:11:16.606Z,2.6
2023-05-11T14:12:26.279Z,2.4
2023-05-11T14:13:35.980Z,1.5
2023-05-11T14:14:45.669Z,0.8
2023-05-11T14:15:55.411Z,0.9
2023-05-11T14:17:05.094Z,2
2023-05-11T14:18:14.858Z,2
2023-05-11T14:19:23.497Z,1.6
2023-05-11T14:20:33.230Z,1
2023-05-11T14:21:42.912Z,0.7
2023-05-11T14:22:52.606Z,0.6
2023-05-11T14:24:10.378Z,0.5
2023-05-11T14:25:12.981Z,0.3
2023-05-11T14:26:21.696Z,0.5
2023-05-11T14:27:31.369Z,0.4
2023-05-11T14:28:40.052Z,0.5
2023-05-11T14:29:49.801Z,0.8
2023-05-11T14:30:59.507Z,1.2
2023-05-11T14:32:09.206Z,1.2
2023-05-11T14:33:18.916Z,1.1
2023-05-11T14:34:27.659Z,1
2023-05-11T14:35:37.830Z,1.6
2023-05-11T14:36:47.132Z,2.7
2023-05-11T14:37:56.852Z,0.8
2023-05-11T14:39:06.569Z,0.3
2023-05-11T14:40:16.294Z,0.2
2023-05-11T14:41:26.019Z,0.3
2023-05-11T14:42:35.725Z,0.4
2023-05-11T14:43:45.420Z,0.3
2023-05-11T14:44:55.130Z,0.4
2023-05-11T14:46:04.881Z,0.6
2023-05-11T14:47:14.554Z,0.6
2023-05-11T14:48:24.293Z,0.7
2023-05-11T14:49:34.032Z,0.9
2023-05-11T14:50:43.758Z,0.7
2023-05-11T14:51:53.453Z,0.4
2023-05-11T14:53:03.150Z,0.4
2023-05-11T14:54:11.914Z,0.5
2023-05-11T14:55:21.662Z,0.5
2023-05-11T14:56:31.327Z,0.5
2023-05-11T14:57:41.016Z,0.4
2023-05-11T14:58:50.733Z,0.5
2023-05-11T15:00:00.911Z,0.3
2023-05-11T15:01:10.100Z,0.6
2023-05-11T15:02:19.862Z,0.5
2023-05-11T15:03:28.607Z,0.6
2023-05-11T15:04:38.280Z,0.7
2023-05-11T15:05:47.977Z,0.6
2023-05-11T15:06:56.747Z,0.4
2023-05-11T15:08:12.897Z,0.4
2023-05-11T15:09:17.106Z,0.3
2023-05-11T15:10:26.803Z,0.4
2023-05-11T15:11:36.536Z,0.4
2023-05-11T15:12:46.224Z,0.4
2023-05-11T15:13:55.931Z,0.5
2023-05-11T15:15:04.617Z,0.3
2023-05-11T15:16:14.385Z,0.8
2023-05-11T15:17:24.223Z,0.9
2023-05-11T15:18:33.889Z,1
2023-05-11T15:19:43.578Z,0.6
2023-05-11T15:20:53.352Z,1
2023-05-11T15:22:03.025Z,1
2023-05-11T15:23:12.704Z,0.8
2023-05-11T15:24:21.389Z,0.8
2023-05-11T15:25:31.142Z,0.8
2023-05-11T15:26:40.982Z,0.5
2023-05-11T15:27:49.565Z,0.4
2023-05-11T15:28:59.286Z,0.5
2023-05-11T15:30:09.016Z,0.4
2023-05-11T15:31:18.773Z,0.6
2023-05-11T15:32:28.472Z,0.7
2023-05-11T15:33:38.194Z,0.4
2023-05-11T15:34:58.374Z,0.4
2023-05-11T15:35:57.573Z,0.3
2023-05-11T15:37:06.273Z,0.3
2023-05-11T15:38:15.955Z,0.3
2023-05-11T15:39:24.667Z,0.5
2023-05-11T15:40:34.417Z,0.4
2023-05-11T15:41:44.175Z,0.7
2023-05-11T15:42:52.803Z,0.4
2023-05-11T15:44:02.513Z,0.6
2023-05-11T15:45:11.260Z,0.6
2023-05-11T15:46:20.970Z,0.7
2023-05-11T15:47:30.717Z,0.5
2023-05-11T15:48:40.354Z,0.8
2023-05-11T15:49:50.195Z,0.3
2023-05-11T15:50:59.797Z,0.3
2023-05-11T15:52:08.517Z,0.5
2023-05-11T15:53:18.215Z,0.6
2023-05-11T15:54:26.919Z,0.5
2023-05-11T15:55:36.613Z,0.6
2023-05-11T15:56:46.321Z,0.8
2023-05-11T15:57:54.967Z,0.3
2023-05-11T15:59:04.739Z,0.3